createdAt,value
2022-12-14T00:02:14.046Z,19.98
2022-12-14T00:04:41.851Z,19.75
2022-12-14T00:07:15.943Z,20.45
2022-12-14T00:09:42.808Z,20.55
2022-12-14T00:12:16.015Z,21.67
2022-12-14T00:14:42.895Z,19.23
2022-12-14T00:17:16.012Z,21.02
2022-12-14T00:19:42.930Z,19.83
2022-12-14T00:22:15.983Z,19.27
2022-12-14T00:24:42.886Z,19.83
2022-12-14T00:27:15.992Z,19.67
2022-12-14T00:29:48.991Z,19.00
2022-12-14T00:32:15.916Z,18.25
2022-12-14T00:34:49.095Z,18.20
2022-12-14T00:37:15.998Z,16.42
2022-12-14T00:39:49.085Z,17.50
2022-12-14T00:42:16.056Z,16.60
2022-12-14T00:44:49.060Z,16.67
2022-12-14T00:47:22.035Z,16.98
2022-12-14T00:49:54.971Z,17.58
2022-12-14T00:52:21.923Z,17.20
2022-12-14T00:54:48.838Z,18.38
2022-12-14T00:57:21.959Z,17.05
2022-12-14T00:59:48.866Z,16.85
2022-12-14T01:02:15.952Z,16.90
2022-12-14T01:04:49.027Z,16.88
2022-12-14T01:07:22.031Z,16.65
2022-12-14T01:09:49.016Z,16.55
2022-12-14T01:12:21.994Z,17.23
2022-12-14T01:14:49.154Z,16.38
2022-12-14T01:17:23.051Z,16.42
2022-12-14T01:19:49.955Z,16.67
2022-12-14T01:22:23.001Z,17.25
2022-12-14T01:24:49.925Z,17.02
2022-12-14T01:27:16.947Z,19.80
2022-12-14T01:29:50.071Z,22.42
2022-12-14T01:32:17.015Z,26.35
2022-12-14T01:34:50.028Z,26.27
2022-12-14T01:37:23.002Z,25.00
2022-12-14T01:39:49.940Z,24.65
2022-12-14T01:42:23.083Z,24.27
2022-12-14T01:44:55.750Z,23.63
2022-12-14T01:47:49.993Z,23.38
2022-12-14T01:50:35.052Z,21.60
2022-12-14T01:53:13.061Z,23.30
2022-12-14T01:55:48.802Z,22.35
2022-12-14T01:58:28.034Z,21.35
2022-12-14T02:01:03.107Z,21.10
2022-12-14T02:03:43.695Z,21.52
2022-12-14T02:06:42.092Z,22.00
2022-12-14T02:09:19.796Z,21.63
2022-12-14T02:12:25.540Z,21.27
2022-12-14T02:14:59.075Z,20.75
2022-12-14T02:17:26.095Z,21.15
2022-12-14T02:19:59.047Z,20.73
2022-12-14T02:22:53.651Z,21.48
2022-12-14T02:25:55.104Z,21.63
2022-12-14T02:28:38.120Z,20.08
2022-12-14T02:31:31.104Z,19.85
2022-12-14T02:34:16.987Z,18.95
2022-12-14T02:37:40.115Z,20.27
2022-12-14T02:40:51.693Z,20.45
2022-12-14T02:43:59.080Z,20.48
2022-12-14T02:46:47.332Z,20.45
2022-12-14T02:49:32.108Z,20.90
2022-12-14T02:52:35.544Z,20.25
2022-12-14T02:55:28.128Z,20.67
2022-12-14T02:58:10.066Z,22.83
2022-12-14T03:00:44.138Z,22.95
2022-12-14T03:03:18.091Z,22.33
2022-12-14T03:05:59.354Z,20.98
2022-12-14T03:08:34.048Z,19.30
2022-12-14T03:11:04.294Z,20.38
2022-12-14T03:13:50.087Z,19.85
2022-12-14T03:16:35.607Z,20.80
2022-12-14T03:19:43.101Z,21.38
2022-12-14T03:22:31.081Z,20.30
2022-12-14T03:25:06.006Z,19.98
2022-12-14T03:27:45.082Z,19.80
2022-12-14T03:30:23.762Z,19.65
2022-12-14T03:33:13.063Z,20.15
2022-12-14T03:35:51.405Z,19.77
2022-12-14T03:38:40.071Z,18.77
2022-12-14T03:41:27.065Z,21.40
2022-12-14T03:44:34.048Z,22.98
2022-12-14T03:47:09.576Z,18.95
2022-12-14T03:50:06.120Z,20.80
2022-12-14T03:53:14.134Z,19.52
2022-12-14T03:56:29.129Z,17.67
2022-12-14T03:59:18.143Z,18.05
2022-12-14T04:02:23.126Z,18.38
2022-12-14T04:05:37.055Z,18.20
2022-12-14T04:08:09.828Z,18.60
2022-12-14T04:10:49.113Z,18.27
2022-12-14T04:13:31.276Z,19.77
2022-12-14T04:15:59.591Z,19.35
2022-12-14T04:18:38.115Z,20.25
2022-12-14T04:21:32.453Z,18.20
2022-12-14T04:24:25.095Z,19.88
2022-12-14T04:27:00.079Z,18.63
2022-12-14T04:29:36.108Z,19.70
2022-12-14T04:32:17.218Z,18.83
2022-12-14T04:34:46.100Z,19.63
2022-12-14T04:37:22.111Z,18.38
2022-12-14T04:40:19.089Z,20.15
2022-12-14T04:42:55.714Z,20.35
2022-12-14T04:45:43.194Z,19.45
2022-12-14T04:48:24.152Z,20.48
2022-12-14T04:51:01.363Z,20.27
2022-12-14T04:53:41.129Z,19.67
2022-12-14T04:56:40.333Z,20.48
2022-12-14T04:59:14.124Z,22.30
2022-12-14T05:01:43.748Z,21.13
2022-12-14T05:04:26.163Z,22.33
2022-12-14T05:07:06.403Z,22.75
2022-12-14T05:09:58.154Z,22.48
2022-12-14T05:12:39.626Z,19.75
2022-12-14T05:15:28.077Z,19.48
2022-12-14T05:17:55.020Z,19.92
2022-12-14T05:20:30.102Z,19.08
2022-12-14T05:22:57.080Z,20.88
2022-12-14T05:25:23.998Z,20.73
2022-12-14T05:27:57.188Z,20.77
2022-12-14T05:30:30.249Z,19.50
2022-12-14T05:32:57.311Z,19.38
2022-12-14T05:35:31.151Z,19.80
2022-12-14T05:38:04.156Z,20.15
2022-12-14T05:40:31.110Z,19.50
2022-12-14T05:43:19.083Z,19.40
2022-12-14T05:45:46.111Z,19.73
2022-12-14T05:48:19.134Z,19.17
2022-12-14T05:50:46.055Z,17.98
2022-12-14T05:53:19.268Z,17.92
2022-12-14T05:55:50.847Z,16.58
2022-12-14T05:58:25.105Z,18.15
2022-12-14T06:00:52.085Z,17.38
2022-12-14T06:03:25.400Z,18.73
2022-12-14T06:05:59.160Z,18.30
2022-12-14T06:08:26.093Z,18.30
2022-12-14T06:10:59.134Z,18.65
2022-12-14T06:13:35.571Z,19.40
2022-12-14T06:16:20.838Z,18.80
2022-12-14T06:19:00.175Z,19.08
2022-12-14T06:21:32.504Z,28.17
2022-12-14T06:24:06.238Z,24.20
2022-12-14T06:26:34.480Z,19.92
2022-12-14T06:29:08.116Z,18.77
2022-12-14T06:31:42.184Z,18.88
2022-12-14T06:34:16.167Z,19.13
2022-12-14T06:36:43.240Z,18.60
2022-12-14T06:39:22.216Z,18.48
2022-12-14T06:41:50.142Z,18.65
2022-12-14T06:44:23.216Z,19.55
2022-12-14T06:46:50.337Z,20.27
2022-12-14T06:49:24.175Z,18.48
2022-12-14T06:51:51.175Z,18.45
2022-12-14T06:54:18.583Z,20.15
2022-12-14T06:56:53.146Z,20.75
2022-12-14T06:59:20.100Z,20.73
2022-12-14T07:01:53.390Z,20.48
2022-12-14T07:04:20.424Z,19.15
2022-12-14T07:06:54.149Z,17.83
2022-12-14T07:09:21.104Z,18.45
2022-12-14T07:11:57.213Z,18.42
2022-12-14T07:14:24.163Z,21.02
2022-12-14T07:16:57.162Z,23.83
2022-12-14T07:19:24.136Z,29.73
2022-12-14T07:21:57.285Z,30.38
2022-12-14T07:24:24.205Z,30.17
2022-12-14T07:26:51.119Z,34.47
2022-12-14T07:29:25.080Z,38.10
2022-12-14T07:32:01.278Z,38.15
2022-12-14T07:34:35.236Z,34.35
2022-12-14T07:37:09.182Z,33.00
2022-12-14T07:39:36.088Z,32.90
2022-12-14T07:42:09.230Z,34.20
2022-12-14T07:44:36.183Z,30.70
2022-12-14T07:47:03.197Z,30.02
2022-12-14T07:49:36.233Z,26.85
2022-12-14T07:52:03.248Z,34.00
2022-12-14T07:54:37.213Z,32.63
2022-12-14T07:57:04.193Z,32.17
2022-12-14T07:59:38.198Z,28.77
2022-12-14T08:02:11.421Z,29.30
2022-12-14T08:04:38.518Z,31.25
2022-12-14T08:07:12.231Z,31.13
2022-12-14T08:09:46.281Z,33.67
2022-12-14T08:12:20.312Z,35.67
2022-12-14T08:14:55.258Z,36.30
2022-12-14T08:17:28.374Z,33.65
2022-12-14T08:20:02.308Z,33.03
2022-12-14T08:22:29.314Z,32.50
2022-12-14T08:24:56.490Z,30.25
2022-12-14T08:27:30.331Z,26.77
2022-12-14T08:30:04.283Z,27.45
2022-12-14T08:32:34.431Z,29.52
2022-12-14T08:35:02.010Z,31.05
2022-12-14T08:37:35.288Z,27.33
2022-12-14T08:40:02.789Z,25.70
2022-12-14T08:42:36.348Z,25.38
2022-12-14T08:45:10.240Z,26.70
2022-12-14T08:47:37.287Z,31.70
2022-12-14T08:50:11.413Z,34.60
2022-12-14T08:52:45.353Z,36.40
2022-12-14T08:55:14.211Z,35.33
2022-12-14T08:57:48.404Z,38.83
2022-12-14T09:00:16.014Z,40.47
2022-12-14T09:02:49.498Z,40.30
2022-12-14T09:05:16.943Z,39.03
2022-12-14T09:07:51.132Z,35.25
2022-12-14T09:10:24.365Z,34.20
2022-12-14T09:12:51.727Z,33.45
2022-12-14T09:15:25.280Z,33.97
2022-12-14T09:17:58.905Z,28.80
2022-12-14T09:20:32.439Z,26.85
2022-12-14T09:22:59.656Z,26.65
2022-12-14T09:25:26.823Z,31.38
2022-12-14T09:28:01.575Z,35.92
2022-12-14T09:30:28.792Z,37.70
2022-12-14T09:32:55.931Z,36.17
2022-12-14T09:35:29.280Z,33.90
2022-12-14T09:37:56.452Z,38.78
2022-12-14T09:40:30.371Z,44.88
2022-12-14T09:43:08.314Z,41.47
2022-12-14T09:45:37.620Z,39.60
2022-12-14T09:48:22.209Z,38.83
2022-12-14T09:50:49.796Z,39.20
2022-12-14T09:53:23.296Z,38.30
2022-12-14T09:55:54.988Z,39.60
2022-12-14T09:58:31.573Z,40.60
2022-12-14T10:01:37.233Z,41.55
2022-12-14T10:05:01.300Z,48.63
2022-12-14T10:07:52.808Z,50.55
2022-12-14T10:11:12.385Z,54.13
2022-12-14T10:14:17.402Z,49.55
2022-12-14T10:16:56.450Z,43.90
2022-12-14T10:19:43.222Z,37.85
2022-12-14T10:22:24.338Z,42.03
2022-12-14T10:25:24.589Z,38.10
2022-12-14T10:28:27.664Z,33.33
2022-12-14T10:30:57.508Z,39.88
2022-12-14T10:33:38.395Z,34.80
2022-12-14T10:36:26.673Z,31.95
2022-12-14T10:39:23.355Z,28.67
2022-12-14T10:42:15.322Z,25.23
2022-12-14T10:47:58.414Z,21.42
2022-12-14T10:50:58.423Z,21.58
2022-12-14T10:53:46.233Z,22.58
2022-12-14T10:56:30.999Z,21.30
2022-12-14T10:59:38.970Z,21.40
2022-12-14T11:02:21.522Z,22.17
2022-12-14T11:05:09.291Z,23.75
2022-12-14T11:07:40.386Z,23.65
2022-12-14T11:10:28.280Z,22.77
2022-12-14T11:13:20.293Z,21.08
2022-12-14T11:15:49.405Z,21.08
2022-12-14T11:18:16.425Z,21.75
2022-12-14T11:21:11.412Z,20.45
2022-12-14T11:23:43.109Z,20.00
2022-12-14T11:26:19.236Z,21.58
2022-12-14T11:28:50.788Z,21.40
2022-12-14T11:31:28.397Z,22.15
2022-12-14T11:34:03.290Z,22.02
2022-12-14T11:36:41.291Z,22.25
2022-12-14T11:39:21.288Z,22.75
2022-12-14T11:41:59.659Z,21.42
2022-12-14T11:44:43.300Z,22.10
2022-12-14T11:47:24.245Z,21.77
2022-12-14T11:49:59.309Z,19.25
2022-12-14T11:52:38.575Z,16.70
2022-12-14T11:55:27.315Z,15.63
2022-12-14T11:57:58.680Z,17.40
2022-12-14T12:00:56.251Z,17.55
2022-12-14T12:03:37.088Z,18.50
2022-12-14T12:06:19.266Z,14.98
2022-12-14T12:08:46.141Z,13.50
2022-12-14T12:11:27.291Z,16.05
2022-12-14T12:14:16.497Z,14.55
2022-12-14T12:16:49.891Z,15.40
2022-12-14T12:19:40.387Z,14.40
2022-12-14T12:22:08.659Z,15.07
2022-12-14T12:25:08.630Z,16.60
2022-12-14T12:27:36.186Z,15.80
2022-12-14T12:30:30.322Z,15.82
2022-12-14T12:33:05.936Z,14.32
2022-12-14T12:35:58.289Z,13.80
2022-12-14T12:39:00.391Z,14.80
2022-12-14T12:41:40.190Z,15.27
2022-12-14T12:44:22.334Z,16.08
2022-12-14T12:47:29.944Z,14.18
2022-12-14T12:50:01.452Z,14.90
2022-12-14T12:52:38.321Z,15.15
2022-12-14T12:55:16.698Z,17.52
2022-12-14T12:57:55.170Z,16.70
2022-12-14T13:00:24.268Z,16.33
2022-12-14T13:03:12.469Z,15.13
2022-12-14T13:05:48.660Z,15.55
2022-12-14T13:08:33.813Z,16.15
2022-12-14T13:11:25.209Z,17.23
2022-12-14T13:13:59.334Z,18.25
2022-12-14T13:16:40.435Z,18.85
2022-12-14T13:19:49.824Z,19.23
2022-12-14T13:22:14.982Z,18.30
2022-12-14T13:24:55.429Z,17.35
2022-12-14T13:28:15.541Z,17.58
2022-12-14T13:30:55.457Z,15.65
2022-12-14T13:34:02.990Z,15.68
2022-12-14T13:36:45.485Z,15.57
2022-12-14T13:39:56.475Z,17.33
2022-12-14T13:42:51.930Z,15.98
2022-12-14T13:45:34.331Z,17.38
2022-12-14T13:48:07.355Z,17.00
2022-12-14T13:50:54.232Z,17.23
2022-12-14T13:53:44.539Z,17.10
2022-12-14T13:56:33.463Z,17.25
2022-12-14T13:59:01.960Z,18.30
2022-12-14T14:01:53.401Z,17.13
2022-12-14T14:04:27.971Z,15.95
2022-12-14T14:07:29.438Z,18.00
2022-12-14T14:10:01.840Z,17.85
2022-12-14T14:12:47.414Z,17.65
2022-12-14T14:15:30.908Z,17.63
2022-12-14T14:18:21.393Z,19.08
2022-12-14T14:21:00.330Z,17.75
2022-12-14T14:23:30.875Z,19.27
2022-12-14T14:26:42.374Z,20.35
2022-12-14T14:29:19.341Z,20.10
2022-12-14T14:32:07.351Z,20.92
2022-12-14T14:34:42.798Z,20.20
2022-12-14T14:37:30.453Z,20.90
2022-12-14T14:40:21.670Z,21.77
2022-12-14T14:43:23.402Z,20.25
2022-12-14T14:45:55.054Z,21.55
2022-12-14T14:48:42.383Z,21.13
2022-12-14T14:51:24.719Z,20.92
2022-12-14T14:55:11.172Z,21.50
2022-12-14T14:58:11.460Z,19.23
2022-12-14T15:01:27.411Z,19.55
2022-12-14T15:04:10.605Z,19.63
2022-12-14T15:06:51.350Z,18.35
2022-12-14T15:09:38.521Z,18.48
2022-12-14T15:12:38.823Z,18.48
2022-12-14T15:15:39.413Z,19.75
2022-12-14T15:18:26.272Z,18.42
2022-12-14T15:21:19.519Z,19.52
2022-12-14T15:23:51.624Z,18.55
2022-12-14T15:26:33.570Z,19.13
2022-12-14T15:29:07.384Z,19.42
2022-12-14T15:31:43.517Z,18.92
2022-12-14T15:34:18.406Z,19.10
2022-12-14T15:36:51.408Z,19.60
2022-12-14T15:39:37.930Z,20.15
2022-12-14T15:42:23.401Z,20.92
2022-12-14T15:44:58.391Z,20.67
2022-12-14T15:47:28.876Z,21.90
2022-12-14T15:50:19.471Z,21.55
2022-12-14T15:52:46.417Z,21.85
2022-12-14T15:55:43.403Z,20.55
2022-12-14T15:58:34.870Z,20.90
2022-12-14T16:01:26.502Z,21.45
2022-12-14T16:03:55.286Z,21.55
2022-12-14T16:06:30.432Z,22.48
2022-12-14T16:09:08.265Z,21.38
2022-12-14T16:11:51.411Z,20.95
2022-12-14T16:14:27.392Z,21.95
2022-12-14T16:16:54.448Z,24.52
2022-12-14T16:19:33.912Z,26.60
2022-12-14T16:22:25.436Z,29.23
2022-12-14T16:25:18.931Z,29.77
2022-12-14T16:27:55.459Z,32.03
2022-12-14T16:30:26.297Z,39.80
2022-12-14T16:33:24.468Z,39.15
2022-12-14T16:36:03.588Z,28.30
2022-12-14T16:38:37.523Z,26.63
2022-12-14T16:41:11.373Z,25.50
2022-12-14T16:43:40.476Z,24.52
2022-12-14T16:46:17.626Z,25.23
2022-12-14T16:48:50.307Z,24.63
2022-12-14T16:54:50.475Z,24.10
2022-12-14T16:57:24.032Z,22.83
2022-12-14T17:00:08.476Z,24.23
2022-12-14T17:02:40.193Z,22.52
2022-12-14T17:05:25.434Z,21.83
2022-12-14T17:07:58.438Z,23.38
2022-12-14T17:10:25.747Z,21.58
2022-12-14T17:13:06.504Z,22.25
2022-12-14T17:15:40.589Z,21.02
2022-12-14T17:18:07.680Z,20.30
2022-12-14T17:20:42.524Z,19.92
2022-12-14T17:23:15.798Z,19.80
2022-12-14T17:25:49.453Z,19.48
2022-12-14T17:28:27.949Z,18.73
2022-12-14T17:31:05.633Z,19.92
2022-12-14T17:33:32.930Z,19.13
2022-12-14T17:36:06.522Z,19.15
2022-12-14T17:38:33.718Z,19.23
2022-12-14T17:41:00.764Z,19.58
2022-12-14T17:43:34.599Z,23.05
2022-12-14T17:46:01.655Z,22.55
2022-12-14T17:48:35.484Z,21.67
2022-12-14T17:51:08.464Z,22.10
2022-12-14T17:53:35.423Z,20.95
2022-12-14T17:56:05.955Z,23.35
2022-12-14T17:58:39.490Z,22.60
2022-12-14T18:01:06.454Z,23.98
2022-12-14T18:03:40.528Z,21.98
2022-12-14T18:06:07.471Z,20.85
2022-12-14T18:08:40.494Z,20.08
2022-12-14T18:11:14.501Z,23.15
2022-12-14T18:13:48.860Z,23.48
2022-12-14T18:16:19.438Z,27.60
2022-12-14T18:18:53.437Z,25.65
2022-12-14T18:21:27.730Z,22.40
2022-12-14T18:24:01.434Z,23.40
2022-12-14T18:26:28.356Z,24.35
2022-12-14T18:29:01.478Z,24.05
2022-12-14T18:31:36.832Z,24.38
2022-12-14T18:34:10.446Z,26.55
2022-12-14T18:36:43.471Z,25.10
2022-12-14T18:39:10.519Z,25.15
2022-12-14T18:41:43.510Z,26.45
2022-12-14T18:44:10.891Z,26.70
2022-12-14T18:46:44.576Z,27.55
2022-12-14T18:49:16.492Z,26.17
2022-12-14T18:51:49.456Z,24.45
2022-12-14T18:54:22.513Z,24.73
2022-12-14T18:56:49.873Z,24.23
2022-12-14T18:59:23.474Z,23.50
2022-12-14T19:01:50.404Z,22.23
2022-12-14T19:04:23.439Z,21.73
2022-12-14T19:06:50.374Z,21.05
2022-12-14T19:09:17.326Z,21.48
2022-12-14T19:11:50.540Z,21.73
2022-12-14T19:14:24.484Z,20.75
2022-12-14T19:16:57.502Z,22.65
2022-12-14T19:19:27.884Z,21.83
2022-12-14T19:22:06.542Z,23.25
2022-12-14T19:24:39.487Z,23.67
2022-12-14T19:27:12.544Z,22.02
2022-12-14T19:29:39.508Z,22.10
2022-12-14T19:32:12.599Z,23.65
2022-12-14T19:34:39.578Z,21.90
2022-12-14T19:37:13.510Z,22.55
2022-12-14T19:39:40.407Z,23.52
2022-12-14T19:42:07.319Z,24.27
2022-12-14T19:44:41.518Z,25.30
2022-12-14T19:47:08.751Z,24.77
2022-12-14T19:49:42.478Z,24.83
2022-12-14T19:52:15.521Z,25.95
2022-12-14T19:54:42.421Z,26.95
2022-12-14T19:57:15.538Z,25.80
2022-12-14T19:59:42.559Z,26.70
2022-12-14T20:02:19.599Z,26.95
2022-12-14T20:04:53.536Z,25.98
2022-12-14T20:07:20.441Z,26.85
2022-12-14T20:09:53.479Z,26.67
2022-12-14T20:12:20.424Z,28.27
2022-12-14T20:14:54.468Z,25.83
2022-12-14T20:17:21.375Z,26.00
2022-12-14T20:19:54.584Z,25.45
2022-12-14T20:22:21.583Z,27.40
2022-12-14T20:24:55.591Z,25.92
2022-12-14T20:27:22.528Z,26.50
2022-12-14T20:29:49.578Z,26.83
2022-12-14T20:32:22.500Z,29.17
2022-12-14T20:34:49.412Z,27.48
2022-12-14T20:37:22.492Z,25.48
2022-12-14T20:39:49.453Z,25.25
2022-12-14T20:42:16.361Z,25.98
2022-12-14T20:44:50.499Z,25.65
2022-12-14T20:47:17.560Z,25.00
2022-12-14T20:49:51.504Z,24.98
2022-12-14T20:52:25.176Z,26.23
2022-12-14T20:54:58.542Z,25.30
2022-12-14T20:57:25.462Z,27.08
2022-12-14T20:59:59.563Z,26.55
2022-12-14T21:02:33.636Z,25.25
2022-12-14T21:05:07.503Z,25.75
2022-12-14T21:07:34.428Z,26.67
2022-12-14T21:10:07.504Z,24.95
2022-12-14T21:12:41.532Z,24.70
2022-12-14T21:15:08.942Z,24.20
2022-12-14T21:17:48.547Z,25.13
2022-12-14T21:20:22.481Z,24.40
2022-12-14T21:23:10.565Z,24.88
2022-12-14T21:25:43.491Z,24.95
2022-12-14T21:28:10.484Z,25.13
2022-12-14T21:30:43.547Z,24.30
2022-12-14T21:33:10.488Z,25.67
2022-12-14T21:35:46.511Z,26.50
2022-12-14T21:38:13.524Z,26.33
2022-12-14T21:40:40.476Z,25.65
2022-12-14T21:43:15.570Z,26.52
2022-12-14T21:45:58.574Z,24.95
2022-12-14T21:48:31.565Z,23.20
2022-12-14T21:50:58.548Z,22.95
2022-12-14T21:53:28.896Z,22.25
2022-12-14T21:56:06.560Z,24.10
2022-12-14T21:58:33.491Z,23.23
2022-12-14T22:01:13.683Z,26.13
2022-12-14T22:03:40.678Z,24.55
2022-12-14T22:06:17.496Z,23.75
2022-12-14T22:08:44.428Z,27.40
2022-12-14T22:11:11.344Z,28.33
2022-12-14T22:13:44.561Z,27.50
2022-12-14T22:16:11.515Z,27.25
2022-12-14T22:18:44.518Z,26.95
2022-12-14T22:21:11.419Z,27.17
2022-12-14T22:23:44.703Z,28.95
2022-12-14T22:26:11.833Z,30.15
2022-12-14T22:28:45.527Z,28.42
2022-12-14T22:31:12.459Z,27.42
2022-12-14T22:33:45.596Z,26.63
2022-12-14T22:36:23.581Z,28.98
2022-12-14T22:38:50.610Z,29.33
2022-12-14T22:41:18.082Z,29.17
2022-12-14T22:43:51.558Z,30.08
2022-12-14T22:46:18.471Z,29.92
2022-12-14T22:48:51.601Z,34.50
2022-12-14T22:51:25.545Z,37.97
2022-12-14T22:53:52.836Z,36.33
2022-12-14T22:56:40.651Z,34.35
2022-12-14T22:59:23.654Z,35.08
2022-12-14T23:01:58.674Z,36.25
2022-12-14T23:04:25.713Z,37.13
2022-12-14T23:06:53.914Z,35.85
2022-12-14T23:09:27.568Z,34.63
2022-12-14T23:11:54.454Z,40.22
2022-12-14T23:14:28.562Z,35.58
2022-12-14T23:16:55.601Z,32.08
2022-12-14T23:19:28.639Z,31.75
2022-12-14T23:21:55.640Z,31.25
2022-12-14T23:24:29.577Z,33.35
2022-12-14T23:26:56.502Z,34.88
2022-12-14T23:29:29.603Z,35.45
2022-12-14T23:32:02.617Z,36.78
2022-12-14T23:34:29.639Z,34.17
2022-12-14T23:37:03.582Z,28.73
2022-12-14T23:39:30.474Z,30.27
2022-12-14T23:42:04.596Z,30.48
2022-12-14T23:44:37.600Z,31.45
2022-12-14T23:47:04.615Z,30.58
2022-12-14T23:49:31.568Z,31.80
2022-12-14T23:52:04.638Z,32.28
2022-12-14T23:54:31.572Z,30.77
2022-12-14T23:57:05.558Z,31.48
2022-12-14T23:59:38.601Z,28.33
